sensor_id;sensor_type;location;lat;lon;timestamp;P1;durP1;ratioP1;P2;durP2;ratioP2
24084;SDS011;12268;52.110;5.548;2023-04-19T00:00:17;13.70;;;7.78;;
24084;SDS011;12268;52.110;5.548;2023-04-19T00:02:44;14.57;;;7.78;;
24084;SDS011;12268;52.110;5.548;2023-04-19T00:05:09;13.30;;;7.53;;
24084;SDS011;12268;52.110;5.548;2023-04-19T00:07:37;17.75;;;8.20;;
24084;SDS011;12268;52.110;5.548;2023-04-19T00:10:03;13.32;;;7.68;;
24084;SDS011;12268;52.110;5.548;2023-04-19T00:12:29;16.85;;;8.38;;
24084;SDS011;12268;52.110;5.548;2023-04-19T00:14:54;14.07;;;8.15;;
24084;SDS011;12268;52.110;5.548;2023-04-19T00:17:20;15.52;;;8.50;;
24084;SDS011;12268;52.110;5.548;2023-04-19T00:19:46;14.73;;;7.45;;
24084;SDS011;12268;52.110;5.548;2023-04-19T00:22:12;12.57;;;8.05;;
24084;SDS011;12268;52.110;5.548;2023-04-19T00:24:37;14.90;;;8.43;;
24084;SDS011;12268;52.110;5.548;2023-04-19T00:27:03;12.60;;;7.78;;
24084;SDS011;12268;52.110;5.548;2023-04-19T00:29:28;13.38;;;8.10;;
24084;SDS011;12268;52.110;5.548;2023-04-19T00:31:54;14.40;;;7.88;;
24084;SDS011;12268;52.110;5.548;2023-04-19T00:34:19;13.68;;;8.38;;
24084;SDS011;12268;52.110;5.548;2023-04-19T00:36:45;11.70;;;7.68;;
24084;SDS011;12268;52.110;5.548;2023-04-19T00:39:10;15.10;;;7.80;;
24084;SDS011;12268;52.110;5.548;2023-04-19T00:41:36;12.23;;;7.97;;
24084;SDS011;12268;52.110;5.548;2023-04-19T00:44:02;14.55;;;7.80;;
24084;SDS011;12268;52.110;5.548;2023-04-19T00:46:28;12.23;;;7.57;;
24084;SDS011;12268;52.110;5.548;2023-04-19T00:48:53;15.93;;;8.80;;
24084;SDS011;12268;52.110;5.548;2023-04-19T00:51:19;13.32;;;7.65;;
24084;SDS011;12268;52.110;5.548;2023-04-19T00:53:45;13.98;;;8.00;;
24084;SDS011;12268;52.110;5.548;2023-04-19T00:56:11;12.13;;;7.93;;
24084;SDS011;12268;52.110;5.548;2023-04-19T00:58:38;12.90;;;7.65;;
24084;SDS011;12268;52.110;5.548;2023-04-19T01:01:03;14.57;;;8.20;;
24084;SDS011;12268;52.110;5.548;2023-04-19T01:03:30;14.90;;;8.40;;
24084;SDS011;12268;52.110;5.548;2023-04-19T01:05:56;16.27;;;8.95;;
24084;SDS011;12268;52.110;5.548;2023-04-19T01:08:22;14.00;;;8.55;;
24084;SDS011;12268;52.110;5.548;2023-04-19T01:10:47;13.27;;;8.30;;
24084;SDS011;12268;52.110;5.548;2023-04-19T01:13:13;15.32;;;8.82;;
24084;SDS011;12268;52.110;5.548;2023-04-19T01:15:39;12.93;;;8.70;;
24084;SDS011;12268;52.110;5.548;2023-04-19T01:18:04;13.32;;;8.40;;
24084;SDS011;12268;52.110;5.548;2023-04-19T01:20:30;15.18;;;9.30;;
24084;SDS011;12268;52.110;5.548;2023-04-19T01:22:56;13.77;;;8.32;;
24084;SDS011;12268;52.110;5.548;2023-04-19T01:25:21;13.70;;;8.27;;
24084;SDS011;12268;52.110;5.548;2023-04-19T01:27:47;15.52;;;9.43;;
24084;SDS011;12268;52.110;5.548;2023-04-19T01:30:12;16.50;;;8.75;;
24084;SDS011;12268;52.110;5.548;2023-04-19T01:32:38;15.05;;;9.15;;
24084;SDS011;12268;52.110;5.548;2023-04-19T01:35:04;16.15;;;9.10;;
24084;SDS011;12268;52.110;5.548;2023-04-19T01:37:30;13.00;;;8.98;;
24084;SDS011;12268;52.110;5.548;2023-04-19T01:39:58;12.98;;;7.97;;
24084;SDS011;12268;52.110;5.548;2023-04-19T01:42:24;15.15;;;8.98;;
24084;SDS011;12268;52.110;5.548;2023-04-19T01:44:51;16.73;;;9.07;;
24084;SDS011;12268;52.110;5.548;2023-04-19T01:47:16;14.80;;;8.80;;
24084;SDS011;12268;52.110;5.548;2023-04-19T01:49:42;17.10;;;8.77;;
24084;SDS011;12268;52.110;5.548;2023-04-19T01:52:07;16.67;;;9.10;;
24084;SDS011;12268;52.110;5.548;2023-04-19T01:54:33;13.85;;;8.40;;
24084;SDS011;12268;52.110;5.548;2023-04-19T01:56:58;14.35;;;7.82;;
24084;SDS011;12268;52.110;5.548;2023-04-19T01:59:24;14.52;;;8.10;;
24084;SDS011;12268;52.110;5.548;2023-04-19T02:01:49;18.15;;;9.27;;
24084;SDS011;12268;52.110;5.548;2023-04-19T02:04:15;14.35;;;8.35;;
24084;SDS011;12268;52.110;5.548;2023-04-19T02:06:42;13.75;;;8.88;;
24084;SDS011;12268;52.110;5.548;2023-04-19T02:09:07;14.23;;;8.77;;
24084;SDS011;12268;52.110;5.548;2023-04-19T02:11:33;19.35;;;8.90;;
24084;SDS011;12268;52.110;5.548;2023-04-19T02:13:58;22.45;;;10.32;;
24084;SDS011;12268;52.110;5.548;2023-04-19T02:16:24;16.23;;;8.70;;
24084;SDS011;12268;52.110;5.548;2023-04-19T02:18:50;13.43;;;8.57;;
24084;SDS011;12268;52.110;5.548;2023-04-19T02:21:16;15.52;;;9.27;;
24084;SDS011;12268;52.110;5.548;2023-04-19T02:23:41;15.98;;;9.48;;
24084;SDS011;12268;52.110;5.548;2023-04-19T02:26:07;14.80;;;8.90;;
24084;SDS011;12268;52.110;5.548;2023-04-19T02:28:32;15.82;;;8.80;;
24084;SDS011;12268;52.110;5.548;2023-04-19T02:30:58;15.27;;;8.70;;
24084;SDS011;12268;52.110;5.548;2023-04-19T02:33:28;16.38;;;8.82;;
24084;SDS011;12268;52.110;5.548;2023-04-19T02:35:53;16.40;;;9.15;;
24084;SDS011;12268;52.110;5.548;2023-04-19T02:38:19;14.25;;;8.55;;
24084;SDS011;12268;52.110;5.548;2023-04-19T02:40:44;14.43;;;8.50;;
24084;SDS011;12268;52.110;5.548;2023-04-19T02:43:10;15.35;;;8.55;;
24084;SDS011;12268;52.110;5.548;2023-04-19T02:45:35;13.48;;;7.68;;
24084;SDS011;12268;52.110;5.548;2023-04-19T02:48:01;16.05;;;9.32;;
24084;SDS011;12268;52.110;5.548;2023-04-19T02:50:26;16.27;;;8.25;;
24084;SDS011;12268;52.110;5.548;2023-04-19T02:52:52;14.02;;;8.10;;
24084;SDS011;12268;52.110;5.548;2023-04-19T02:55:18;15.27;;;8.50;;
24084;SDS011;12268;52.110;5.548;2023-04-19T02:57:43;13.10;;;8.82;;
24084;SDS011;12268;52.110;5.548;2023-04-19T03:00:09;15.23;;;9.15;;
24084;SDS011;12268;52.110;5.548;2023-04-19T03:02:35;17.20;;;8.52;;
24084;SDS011;12268;52.110;5.548;2023-04-19T03:05:01;16.23;;;9.43;;
24084;SDS011;12268;52.110;5.548;2023-04-19T03:07:28;13.98;;;9.02;;
24084;SDS011;12268;52.110;5.548;2023-04-19T03:09:53;15.07;;;9.35;;
24084;SDS011;12268;52.110;5.548;2023-04-19T03:12:19;13.98;;;8.70;;
24084;SDS011;12268;52.110;5.548;2023-04-19T03:14:44;11.25;;;7.38;;
24084;SDS011;12268;52.110;5.548;2023-04-19T03:17:10;16.33;;;8.40;;
24084;SDS011;12268;52.110;5.548;2023-04-19T03:19:35;12.88;;;7.82;;
24084;SDS011;12268;52.110;5.548;2023-04-19T03:22:01;15.93;;;8.57;;
24084;SDS011;12268;52.110;5.548;2023-04-19T03:24:27;15.45;;;7.55;;
24084;SDS011;12268;52.110;5.548;2023-04-19T03:26:54;13.95;;;7.43;;
24084;SDS011;12268;52.110;5.548;2023-04-19T03:29:20;12.70;;;6.50;;
24084;SDS011;12268;52.110;5.548;2023-04-19T03:31:46;15.10;;;8.70;;
24084;SDS011;12268;52.110;5.548;2023-04-19T03:34:12;13.88;;;8.10;;
24084;SDS011;12268;52.110;5.548;2023-04-19T03:36:38;14.23;;;7.90;;
24084;SDS011;12268;52.110;5.548;2023-04-19T03:39:04;11.95;;;7.07;;
24084;SDS011;12268;52.110;5.548;2023-04-19T03:41:30;13.95;;;7.63;;
24084;SDS011;12268;52.110;5.548;2023-04-19T03:43:56;10.88;;;7.53;;
24084;SDS011;12268;52.110;5.548;2023-04-19T03:46:24;13.00;;;7.40;;
24084;SDS011;12268;52.110;5.548;2023-04-19T03:48:50;12.10;;;7.35;;
24084;SDS011;12268;52.110;5.548;2023-04-19T03:51:17;13.18;;;8.55;;
24084;SDS011;12268;52.110;5.548;2023-04-19T03:53:42;10.18;;;6.82;;
24084;SDS011;12268;52.110;5.548;2023-04-19T03:56:08;11.57;;;7.13;;
24084;SDS011;12268;52.110;5.548;2023-04-19T03:58:34;10.88;;;6.20;;
24084;SDS011;12268;52.110;5.548;2023-04-19T13:20:23;5.28;;;2.60;;
24084;SDS011;12268;52.110;5.548;2023-04-19T13:22:48;6.32;;;2.90;;
24084;SDS011;12268;52.110;5.548;2023-04-19T13:25:14;6.18;;;3.15;;
24084;SDS011;12268;52.110;5.548;2023-04-19T13:27:39;5.40;;;2.95;;
24084;SDS011;12268;52.110;5.548;2023-04-19T13:30:05;4.43;;;2.30;;
24084;SDS011;12268;52.110;5.548;2023-04-19T13:32:31;4.85;;;2.47;;
24084;SDS011;12268;52.110;5.548;2023-04-19T13:34:57;3.53;;;2.40;;
24084;SDS011;12268;52.110;5.548;2023-04-19T13:37:22;4.20;;;2.30;;
24084;SDS011;12268;52.110;5.548;2023-04-19T13:57:55;7.43;;;2.88;;
24084;SDS011;12268;52.110;5.548;2023-04-19T14:00:21;6.38;;;2.30;;
24084;SDS011;12268;52.110;5.548;2023-04-19T14:02:46;6.18;;;2.38;;
24084;SDS011;12268;52.110;5.548;2023-04-19T14:05:12;3.35;;;2.08;;
24084;SDS011;12268;52.110;5.548;2023-04-19T14:07:38;7.57;;;2.50;;
24084;SDS011;12268;52.110;5.548;2023-04-19T14:10:04;3.53;;;2.38;;
24084;SDS011;12268;52.110;5.548;2023-04-19T14:12:31;3.47;;;2.00;;
24084;SDS011;12268;52.110;5.548;2023-04-19T14:14:57;9.52;;;2.30;;
24084;SDS011;12268;52.110;5.548;2023-04-19T14:17:23;6.57;;;1.92;;
24084;SDS011;12268;52.110;5.548;2023-04-19T14:19:48;2.83;;;2.08;;
24084;SDS011;12268;52.110;5.548;2023-04-19T14:22:17;3.50;;;2.08;;
24084;SDS011;12268;52.110;5.548;2023-04-19T14:24:42;3.63;;;2.00;;
24084;SDS011;12268;52.110;5.548;2023-04-19T14:27:09;4.82;;;2.67;;
24084;SDS011;12268;52.110;5.548;2023-04-19T14:29:35;4.18;;;2.53;;
24084;SDS011;12268;52.110;5.548;2023-04-19T14:32:00;3.50;;;2.20;;
24084;SDS011;12268;52.110;5.548;2023-04-19T14:34:26;4.13;;;2.45;;
24084;SDS011;12268;52.110;5.548;2023-04-19T14:36:52;3.67;;;2.05;;
24084;SDS011;12268;52.110;5.548;2023-04-19T14:39:17;5.97;;;2.70;;
24084;SDS011;12268;52.110;5.548;2023-04-19T14:41:43;5.03;;;2.92;;
24084;SDS011;12268;52.110;5.548;2023-04-19T14:44:08;5.35;;;2.35;;
24084;SDS011;12268;52.110;5.548;2023-04-19T14:46:34;4.18;;;2.80;;
24084;SDS011;12268;52.110;5.548;2023-04-19T14:49:00;5.47;;;2.67;;
24084;SDS011;12268;52.110;5.548;2023-04-19T14:51:29;3.55;;;2.35;;
24084;SDS011;12268;52.110;5.548;2023-04-19T14:53:56;7.88;;;2.90;;
24084;SDS011;12268;52.110;5.548;2023-04-19T14:56:22;8.38;;;2.65;;
24084;SDS011;12268;52.110;5.548;2023-04-19T14:58:48;5.88;;;2.97;;
24084;SDS011;12268;52.110;5.548;2023-04-19T15:01:13;5.65;;;3.10;;
24084;SDS011;12268;52.110;5.548;2023-04-19T15:03:39;7.63;;;3.13;;
24084;SDS011;12268;52.110;5.548;2023-04-19T15:06:08;5.50;;;2.90;;
24084;SDS011;12268;52.110;5.548;2023-04-19T15:08:34;4.15;;;2.88;;
24084;SDS011;12268;52.110;5.548;2023-04-19T15:10:59;10.23;;;3.28;;
24084;SDS011;12268;52.110;5.548;2023-04-19T15:13:25;3.70;;;2.92;;
24084;SDS011;12268;52.110;5.548;2023-04-19T15:15:51;6.15;;;3.20;;
24084;SDS011;12268;52.110;5.548;2023-04-19T15:18:16;9.55;;;3.40;;
24084;SDS011;12268;52.110;5.548;2023-04-19T15:20:42;5.28;;;3.88;;
24084;SDS011;12268;52.110;5.548;2023-04-19T15:23:07;7.22;;;3.58;;
24084;SDS011;12268;52.110;5.548;2023-04-19T15:25:33;6.43;;;3.67;;
24084;SDS011;12268;52.110;5.548;2023-04-19T15:27:59;6.20;;;3.88;;
24084;SDS011;12268;52.110;5.548;2023-04-19T15:30:24;5.32;;;3.75;;
24084;SDS011;12268;52.110;5.548;2023-04-19T15:32:50;6.22;;;3.42;;
24084;SDS011;12268;52.110;5.548;2023-04-19T15:35:16;5.70;;;3.60;;
24084;SDS011;12268;52.110;5.548;2023-04-19T15:37:41;6.63;;;3.72;;
24084;SDS011;12268;52.110;5.548;2023-04-19T15:40:08;7.93;;;4.15;;
24084;SDS011;12268;52.110;5.548;2023-04-19T15:42:36;8.98;;;4.00;;
24084;SDS011;12268;52.110;5.548;2023-04-19T15:45:01;6.60;;;4.15;;
24084;SDS011;12268;52.110;5.548;2023-04-19T15:47:27;5.88;;;3.47;;
24084;SDS011;12268;52.110;5.548;2023-04-19T15:49:53;6.47;;;4.05;;
24084;SDS011;12268;52.110;5.548;2023-04-19T15:52:18;5.93;;;4.15;;
24084;SDS011;12268;52.110;5.548;2023-04-19T15:54:44;8.07;;;4.40;;
24084;SDS011;12268;52.110;5.548;2023-04-19T15:57:10;7.15;;;4.60;;
24084;SDS011;12268;52.110;5.548;2023-04-19T15:59:35;6.57;;;4.40;;
24084;SDS011;12268;52.110;5.548;2023-04-19T16:02:01;6.60;;;4.25;;
24084;SDS011;12268;52.110;5.548;2023-04-19T16:04:26;7.32;;;4.43;;
24084;SDS011;12268;52.110;5.548;2023-04-19T16:06:52;8.13;;;3.85;;
24084;SDS011;12268;52.110;5.548;2023-04-19T16:09:17;6.75;;;3.78;;
24084;SDS011;12268;52.110;5.548;2023-04-19T16:11:43;5.60;;;3.60;;
24084;SDS011;12268;52.110;5.548;2023-04-19T16:14:09;7.95;;;3.88;;
24084;SDS011;12268;52.110;5.548;2023-04-19T16:16:34;7.55;;;3.95;;
24084;SDS011;12268;52.110;5.548;2023-04-19T16:19:00;5.43;;;3.53;;
24084;SDS011;12268;52.110;5.548;2023-04-19T16:21:25;7.43;;;3.53;;
24084;SDS011;12268;52.110;5.548;2023-04-19T16:23:53;8.55;;;3.22;;
24084;SDS011;12268;52.110;5.548;2023-04-19T16:26:19;11.77;;;3.50;;
24084;SDS011;12268;52.110;5.548;2023-04-19T16:28:46;4.63;;;2.88;;
24084;SDS011;12268;52.110;5.548;2023-04-19T16:31:12;5.68;;;3.35;;
24084;SDS011;12268;52.110;5.548;2023-04-19T16:33:37;5.93;;;3.28;;
24084;SDS011;12268;52.110;5.548;2023-04-19T16:36:03;5.82;;;3.30;;
24084;SDS011;12268;52.110;5.548;2023-04-19T16:38:29;6.78;;;3.33;;
24084;SDS011;12268;52.110;5.548;2023-04-19T16:40:54;5.97;;;3.22;;
24084;SDS011;12268;52.110;5.548;2023-04-19T16:43:20;8.25;;;3.53;;
24084;SDS011;12268;52.110;5.548;2023-04-19T16:45:46;5.65;;;3.40;;
24084;SDS011;12268;52.110;5.548;2023-04-19T16:48:12;10.88;;;3.63;;
24084;SDS011;12268;52.110;5.548;2023-04-19T16:50:37;4.72;;;3.10;;
24084;SDS011;12268;52.110;5.548;2023-04-19T16:53:03;4.90;;;3.05;;
24084;SDS011;12268;52.110;5.548;2023-04-19T16:55:28;5.22;;;3.10;;
24084;SDS011;12268;52.110;5.548;2023-04-19T16:57:54;4.70;;;2.72;;
24084;SDS011;12268;52.110;5.548;2023-04-19T17:00:20;5.70;;;2.90;;
24084;SDS011;12268;52.110;5.548;2023-04-19T17:02:46;4.63;;;2.92;;
24084;SDS011;12268;52.110;5.548;2023-04-19T17:05:12;3.72;;;2.70;;
24084;SDS011;12268;52.110;5.548;2023-04-19T17:07:39;6.05;;;3.20;;
24084;SDS011;12268;52.110;5.548;2023-04-19T17:10:05;4.70;;;3.35;;
24084;SDS011;12268;52.110;5.548;2023-04-19T17:12:31;8.60;;;3.13;;
24084;SDS011;12268;52.110;5.548;2023-04-19T17:14:57;4.88;;;3.00;;
24084;SDS011;12268;52.110;5.548;2023-04-19T17:17:23;7.07;;;2.88;;
24084;SDS011;12268;52.110;5.548;2023-04-19T17:19:48;4.40;;;2.78;;
24084;SDS011;12268;52.110;5.548;2023-04-19T17:22:14;5.63;;;2.83;;
24084;SDS011;12268;52.110;5.548;2023-04-19T17:24:40;8.13;;;2.88;;
24084;SDS011;12268;52.110;5.548;2023-04-19T17:27:06;4.10;;;2.60;;
24084;SDS011;12268;52.110;5.548;2023-04-19T17:29:31;6.30;;;2.65;;
24084;SDS011;12268;52.110;5.548;2023-04-19T17:31:57;7.63;;;2.97;;
24084;SDS011;12268;52.110;5.548;2023-04-19T17:34:23;8.30;;;3.00;;
24084;SDS011;12268;52.110;5.548;2023-04-19T17:36:49;4.05;;;2.70;;
24084;SDS011;12268;52.110;5.548;2023-04-19T17:39:15;5.88;;;2.63;;
24084;SDS011;12268;52.110;5.548;2023-04-19T17:41:40;3.92;;;2.53;;
24084;SDS011;12268;52.110;5.548;2023-04-19T17:44:06;4.10;;;2.67;;
24084;SDS011;12268;52.110;5.548;2023-04-19T17:46:31;4.90;;;2.72;;
24084;SDS011;12268;52.110;5.548;2023-04-19T17:48:57;5.47;;;2.40;;
24084;SDS011;12268;52.110;5.548;2023-04-19T17:51:22;5.47;;;2.17;;
24084;SDS011;12268;52.110;5.548;2023-04-19T17:53:48;4.85;;;2.20;;
24084;SDS011;12268;52.110;5.548;2023-04-19T17:56:13;4.80;;;2.80;;
24084;SDS011;12268;52.110;5.548;2023-04-19T17:58:39;5.10;;;3.00;;
24084;SDS011;12268;52.110;5.548;2023-04-19T18:01:05;6.72;;;3.10;;
24084;SDS011;12268;52.110;5.548;2023-04-19T18:03:32;7.25;;;3.92;;
24084;SDS011;12268;52.110;5.548;2023-04-19T18:05:58;5.18;;;2.35;;
24084;SDS011;12268;52.110;5.548;2023-04-19T18:08:23;7.13;;;3.78;;
24084;SDS011;12268;52.110;5.548;2023-04-19T18:10:49;8.60;;;3.28;;
24084;SDS011;12268;52.110;5.548;2023-04-19T18:13:15;6.80;;;2.75;;
24084;SDS011;12268;52.110;5.548;2023-04-19T18:15:40;5.03;;;2.72;;
24084;SDS011;12268;52.110;5.548;2023-04-19T18:18:06;4.75;;;2.40;;
24084;SDS011;12268;52.110;5.548;2023-04-19T18:20:31;7.15;;;3.38;;
24084;SDS011;12268;52.110;5.548;2023-04-19T18:22:57;6.68;;;2.63;;
24084;SDS011;12268;52.110;5.548;2023-04-19T18:25:26;6.60;;;3.13;;
24084;SDS011;12268;52.110;5.548;2023-04-19T18:27:52;7.57;;;2.80;;
24084;SDS011;12268;52.110;5.548;2023-04-19T18:30:18;8.68;;;2.80;;
24084;SDS011;12268;52.110;5.548;2023-04-19T18:32:44;8.32;;;3.50;;
24084;SDS011;12268;52.110;5.548;2023-04-19T18:35:10;7.15;;;3.45;;
24084;SDS011;12268;52.110;5.548;2023-04-19T18:37:36;5.18;;;2.97;;
24084;SDS011;12268;52.110;5.548;2023-04-19T18:40:01;6.55;;;2.70;;
24084;SDS011;12268;52.110;5.548;2023-04-19T18:42:30;6.72;;;2.50;;
24084;SDS011;12268;52.110;5.548;2023-04-19T18:44:56;6.25;;;2.63;;
24084;SDS011;12268;52.110;5.548;2023-04-19T18:47:24;3.72;;;2.25;;
24084;SDS011;12268;52.110;5.548;2023-04-19T18:49:50;3.83;;;2.45;;
24084;SDS011;12268;52.110;5.548;2023-04-19T18:52:15;7.50;;;2.53;;
24084;SDS011;12268;52.110;5.548;2023-04-19T18:54:43;3.35;;;2.55;;
24084;SDS011;12268;52.110;5.548;2023-04-19T18:57:09;5.13;;;2.55;;
24084;SDS011;12268;52.110;5.548;2023-04-19T18:59:35;5.70;;;2.60;;
24084;SDS011;12268;52.110;5.548;2023-04-19T19:02:01;4.15;;;2.28;;
24084;SDS011;12268;52.110;5.548;2023-04-19T19:04:27;6.03;;;2.40;;
24084;SDS011;12268;52.110;5.548;2023-04-19T19:06:52;7.10;;;2.40;;
24084;SDS011;12268;52.110;5.548;2023-04-19T19:09:18;5.15;;;2.13;;
24084;SDS011;12268;52.110;5.548;2023-04-19T19:11:44;4.63;;;2.78;;
24084;SDS011;12268;52.110;5.548;2023-04-19T19:14:10;3.78;;;2.25;;
24084;SDS011;12268;52.110;5.548;2023-04-19T19:16:35;4.60;;;2.67;;
24084;SDS011;12268;52.110;5.548;2023-04-19T19:19:02;4.90;;;2.67;;
24084;SDS011;12268;52.110;5.548;2023-04-19T19:21:30;6.38;;;3.22;;
24084;SDS011;12268;52.110;5.548;2023-04-19T19:23:56;4.53;;;2.42;;
24084;SDS011;12268;52.110;5.548;2023-04-19T19:26:23;5.07;;;3.03;;
24084;SDS011;12268;52.110;5.548;2023-04-19T19:28:48;5.18;;;2.60;;
24084;SDS011;12268;52.110;5.548;2023-04-19T19:31:14;6.35;;;2.80;;
24084;SDS011;12268;52.110;5.548;2023-04-19T19:33:39;5.43;;;2.95;;
24084;SDS011;12268;52.110;5.548;2023-04-19T19:36:05;6.18;;;2.67;;
24084;SDS011;12268;52.110;5.548;2023-04-19T19:38:33;5.43;;;3.03;;
24084;SDS011;12268;52.110;5.548;2023-04-19T19:40:59;4.65;;;2.42;;
24084;SDS011;12268;52.110;5.548;2023-04-19T19:43:25;5.40;;;2.80;;
24084;SDS011;12268;52.110;5.548;2023-04-19T19:45:50;4.35;;;2.60;;
24084;SDS011;12268;52.110;5.548;2023-04-19T19:48:16;3.85;;;2.38;;
24084;SDS011;12268;52.110;5.548;2023-04-19T19:50:41;5.20;;;2.83;;
24084;SDS011;12268;52.110;5.548;2023-04-19T19:53:07;10.75;;;2.78;;
24084;SDS011;12268;52.110;5.548;2023-04-19T19:55:32;5.68;;;2.60;;
24084;SDS011;12268;52.110;5.548;2023-04-19T19:57:58;6.63;;;2.60;;
24084;SDS011;12268;52.110;5.548;2023-04-19T20:00:24;5.70;;;3.10;;
24084;SDS011;12268;52.110;5.548;2023-04-19T20:02:49;4.65;;;2.78;;
24084;SDS011;12268;52.110;5.548;2023-04-19T20:05:15;9.50;;;2.70;;
24084;SDS011;12268;52.110;5.548;2023-04-19T20:07:41;4.50;;;2.83;;
24084;SDS011;12268;52.110;5.548;2023-04-19T20:10:07;4.55;;;2.75;;
24084;SDS011;12268;52.110;5.548;2023-04-19T20:12:34;5.18;;;2.63;;
24084;SDS011;12268;52.110;5.548;2023-04-19T20:15:00;5.13;;;3.03;;
24084;SDS011;12268;52.110;5.548;2023-04-19T20:17:26;5.18;;;2.97;;
24084;SDS011;12268;52.110;5.548;2023-04-19T20:19:52;5.20;;;2.38;;
24084;SDS011;12268;52.110;5.548;2023-04-19T20:22:18;4.10;;;2.97;;
24084;SDS011;12268;52.110;5.548;2023-04-19T20:24:43;6.32;;;2.60;;
24084;SDS011;12268;52.110;5.548;2023-04-19T20:27:10;8.40;;;3.13;;
24084;SDS011;12268;52.110;5.548;2023-04-19T20:29:36;6.30;;;2.78;;
24084;SDS011;12268;52.110;5.548;2023-04-19T20:32:01;6.22;;;3.10;;
24084;SDS011;12268;52.110;5.548;2023-04-19T20:34:27;7.50;;;2.75;;
24084;SDS011;12268;52.110;5.548;2023-04-19T20:36:53;6.55;;;2.72;;
24084;SDS011;12268;52.110;5.548;2023-04-19T20:39:18;7.22;;;2.70;;
24084;SDS011;12268;52.110;5.548;2023-04-19T20:41:44;4.85;;;3.03;;
24084;SDS011;12268;52.110;5.548;2023-04-19T20:44:15;5.75;;;2.97;;
24084;SDS011;12268;52.110;5.548;2023-04-19T20:46:41;6.15;;;3.10;;
24084;SDS011;12268;52.110;5.548;2023-04-19T20:49:07;7.07;;;2.45;;
24084;SDS011;12268;52.110;5.548;2023-04-19T20:51:32;4.28;;;2.67;;
24084;SDS011;12268;52.110;5.548;2023-04-19T20:53:58;4.53;;;2.55;;
24084;SDS011;12268;52.110;5.548;2023-04-19T20:56:23;4.07;;;2.42;;
24084;SDS011;12268;52.110;5.548;2023-04-19T20:58:49;6.65;;;2.70;;
24084;SDS011;12268;52.110;5.548;2023-04-19T21:01:15;5.03;;;2.85;;
24084;SDS011;12268;52.110;5.548;2023-04-19T21:03:41;5.03;;;2.67;;
24084;SDS011;12268;52.110;5.548;2023-04-19T21:06:07;4.53;;;2.47;;
24084;SDS011;12268;52.110;5.548;2023-04-19T21:08:33;5.53;;;2.60;;
24084;SDS011;12268;52.110;5.548;2023-04-19T21:10:59;5.75;;;2.63;;
24084;SDS011;12268;52.110;5.548;2023-04-19T21:13:24;5.75;;;2.40;;
24084;SDS011;12268;52.110;5.548;2023-04-19T21:15:50;6.40;;;2.75;;
24084;SDS011;12268;52.110;5.548;2023-04-19T21:18:16;6.72;;;2.70;;
24084;SDS011;12268;52.110;5.548;2023-04-19T21:20:41;5.63;;;2.80;;
24084;SDS011;12268;52.110;5.548;2023-04-19T21:23:07;4.18;;;2.45;;
24084;SDS011;12268;52.110;5.548;2023-04-19T21:25:33;6.47;;;2.88;;
24084;SDS011;12268;52.110;5.548;2023-04-19T21:27:58;3.85;;;2.53;;
24084;SDS011;12268;52.110;5.548;2023-04-19T21:30:24;4.68;;;2.53;;
24084;SDS011;12268;52.110;5.548;2023-04-19T21:32:49;4.57;;;2.70;;
24084;SDS011;12268;52.110;5.548;2023-04-19T21:35:15;3.83;;;2.28;;
24084;SDS011;12268;52.110;5.548;2023-04-19T21:37:41;4.45;;;2.40;;
24084;SDS011;12268;52.110;5.548;2023-04-19T21:40:07;4.13;;;2.50;;
24084;SDS011;12268;52.110;5.548;2023-04-19T21:42:33;5.22;;;2.55;;
24084;SDS011;12268;52.110;5.548;2023-04-19T21:44:59;4.85;;;2.17;;
24084;SDS011;12268;52.110;5.548;2023-04-19T21:47:25;6.60;;;2.50;;
24084;SDS011;12268;52.110;5.548;2023-04-19T21:49:51;3.80;;;2.17;;
24084;SDS011;12268;52.110;5.548;2023-04-19T21:52:17;8.27;;;2.75;;
24084;SDS011;12268;52.110;5.548;2023-04-19T21:54:43;3.40;;;2.28;;
24084;SDS011;12268;52.110;5.548;2023-04-19T21:57:08;7.68;;;2.20;;
24084;SDS011;12268;52.110;5.548;2023-04-19T21:59:35;5.72;;;2.30;;
24084;SDS011;12268;52.110;5.548;2023-04-19T22:02:01;3.90;;;2.13;;
24084;SDS011;12268;52.110;5.548;2023-04-19T22:04:27;4.97;;;2.40;;
24084;SDS011;12268;52.110;5.548;2023-04-19T22:06:55;8.40;;;2.75;;
24084;SDS011;12268;52.110;5.548;2023-04-19T22:09:27;5.18;;;2.30;;
24084;SDS011;12268;52.110;5.548;2023-04-19T22:11:53;4.90;;;2.58;;
24084;SDS011;12268;52.110;5.548;2023-04-19T22:14:19;5.75;;;2.55;;
24084;SDS011;12268;52.110;5.548;2023-04-19T22:16:47;3.63;;;2.20;;
24084;SDS011;12268;52.110;5.548;2023-04-19T22:19:15;5.03;;;2.45;;
24084;SDS011;12268;52.110;5.548;2023-04-19T22:21:41;6.32;;;2.20;;
24084;SDS011;12268;52.110;5.548;2023-04-19T22:24:07;9.20;;;2.17;;
24084;SDS011;12268;52.110;5.548;2023-04-19T22:26:32;4.25;;;2.30;;
24084;SDS011;12268;52.110;5.548;2023-04-19T22:28:58;4.25;;;2.55;;
24084;SDS011;12268;52.110;5.548;2023-04-19T22:31:24;3.30;;;1.98;;
24084;SDS011;12268;52.110;5.548;2023-04-19T22:33:50;4.18;;;2.53;;
24084;SDS011;12268;52.110;5.548;2023-04-19T22:36:15;6.47;;;2.70;;
24084;SDS011;12268;52.110;5.548;2023-04-19T22:38:41;5.05;;;2.33;;
24084;SDS011;12268;52.110;5.548;2023-04-19T22:41:06;4.15;;;2.10;;
24084;SDS011;12268;52.110;5.548;2023-04-19T22:43:32;5.55;;;2.10;;
24084;SDS011;12268;52.110;5.548;2023-04-19T22:45:57;6.38;;;2.20;;
24084;SDS011;12268;52.110;5.548;2023-04-19T22:48:23;4.25;;;2.33;;
24084;SDS011;12268;52.110;5.548;2023-04-19T22:50:48;3.45;;;2.10;;
24084;SDS011;12268;52.110;5.548;2023-04-19T22:53:16;5.93;;;2.10;;
24084;SDS011;12268;52.110;5.548;2023-04-19T22:55:42;7.75;;;2.13;;
24084;SDS011;12268;52.110;5.548;2023-04-19T22:58:07;6.93;;;2.05;;
24084;SDS011;12268;52.110;5.548;2023-04-19T23:00:34;3.83;;;2.13;;
24084;SDS011;12268;52.110;5.548;2023-04-19T23:03:00;3.58;;;2.03;;
24084;SDS011;12268;52.110;5.548;2023-04-19T23:05:26;6.70;;;2.08;;
24084;SDS011;12268;52.110;5.548;2023-04-19T23:07:53;7.45;;;2.40;;
24084;SDS011;12268;52.110;5.548;2023-04-19T23:10:28;4.25;;;2.00;;
24084;SDS011;12268;52.110;5.548;2023-04-19T23:12:55;3.40;;;2.30;;
24084;SDS011;12268;52.110;5.548;2023-04-19T23:15:22;4.07;;;2.10;;
24084;SDS011;12268;52.110;5.548;2023-04-19T23:17:48;7.30;;;2.30;;
24084;SDS011;12268;52.110;5.548;2023-04-19T23:20:14;5.30;;;2.00;;
24084;SDS011;12268;52.110;5.548;2023-04-19T23:22:41;5.65;;;2.60;;
24084;SDS011;12268;52.110;5.548;2023-04-19T23:25:06;7.20;;;2.33;;
24084;SDS011;12268;52.110;5.548;2023-04-19T23:27:33;3.58;;;1.98;;
24084;SDS011;12268;52.110;5.548;2023-04-19T23:29:59;2.97;;;2.30;;
24084;SDS011;12268;52.110;5.548;2023-04-19T23:32:29;3.80;;;2.40;;
24084;SDS011;12268;52.110;5.548;2023-04-19T23:34:55;4.53;;;2.20;;
24084;SDS011;12268;52.110;5.548;2023-04-19T23:37:20;4.47;;;2.17;;
24084;SDS011;12268;52.110;5.548;2023-04-19T23:39:46;3.47;;;1.98;;
24084;SDS011;12268;52.110;5.548;2023-04-19T23:42:11;3.80;;;2.03;;
24084;SDS011;12268;52.110;5.548;2023-04-19T23:44:38;3.70;;;2.38;;
24084;SDS011;12268;52.110;5.548;2023-04-19T23:47:03;4.30;;;2.03;;
24084;SDS011;12268;52.110;5.548;2023-04-19T23:49:29;4.78;;;2.03;;
24084;SDS011;12268;52.110;5.548;2023-04-19T23:51:55;3.88;;;2.30;;
24084;SDS011;12268;52.110;5.548;2023-04-19T23:54:20;5.28;;;2.22;;
24084;SDS011;12268;52.110;5.548;2023-04-19T23:56:49;5.25;;;1.88;;
24084;SDS011;12268;52.110;5.548;2023-04-19T23:59:15;4.50;;;2.30;;
